Terminal Aerodrome Forecast
Issued by NWS Billings, MT

Home | Current Version | Previous Version | Text Only | Print | Product List | Glossary On
Versions: 1 2 3 4 5 6 7 8 9 10 11 12 13 14 15 16 17 18 19 20 21 22 23 24 25 26 27 28 29 30 31 32
000
FTUS45 KBYZ 222109 AAB
TAFMLS
TAF AMD
KMLS 222109Z 2221/2318 06007KT P6SM VCSH SCT015 BKN035 OVC080
     FM230000 08010KT P6SM -RA SCT015 OVC020
     FM230700 06015KT 4SM -RA BR BKN003 OVC020=

USA.gov is the U.S. government's official web portal to all federal, state and local government web resources and services.